Time;durP1;ratioP1;P1;durP2;ratioP2;P2;SDS_P1;SDS_P2;PMS_P1;PMS_P2;Temp;Humidity;BMP_temperature;BMP_pressure;BME280_temperature;BME280_humidity;BME280_pressure;Samples;Min_cycle;Max_cycle;Signal;HPM_P1;HPM_P2
2023/11/26 00:00:12;;;;;;;2.15;1.75;;;0.20;99.90;;;;;;6137642;23;20550;-88
2023/11/26 00:02:40;;;;;;;1.02;0.88;;;0.20;99.90;;;;;;6137424;23;20183;-89
2023/11/26 00:05:08;;;;;;;0.50;0.50;;;0.20;99.90;;;;;;6135169;23;20187;-88
2023/11/26 00:07:36;;;;;;;0.50;0.50;;;0.20;99.90;;;;;;6161201;23;20249;-84
2023/11/26 00:10:03;;;;;;;0.82;0.82;;;0.30;99.90;;;;;;6138319;23;20186;-85
2023/11/26 00:12:31;;;;;;;1.88;1.77;;;0.20;99.90;;;;;;6147700;23;20249;-83
2023/11/26 00:14:58;;;;;;;2.15;1.90;;;0.30;99.90;;;;;;6148937;23;20178;-84
2023/11/26 00:17:25;;;;;;;0.98;0.98;;;0.30;99.90;;;;;;6132671;23;20241;-82
2023/11/26 00:19:54;;;;;;;2.97;2.58;;;0.30;99.90;;;;;;6153163;23;20241;-84
2023/11/26 00:22:28;;;;;;;1.85;1.75;;;0.30;99.90;;;;;;6133793;23;20258;-80
2023/11/26 00:24:55;;;;;;;0.60;0.60;;;0.30;99.90;;;;;;6134458;23;20557;-85
2023/11/26 00:27:25;;;;;;;0.65;0.65;;;0.30;99.90;;;;;;6133620;23;20170;-81
2023/11/26 00:29:59;;;;;;;2.00;1.90;;;0.30;99.90;;;;;;6133207;23;20549;-82
2023/11/26 00:32:25;;;;;;;0.40;0.40;;;0.40;99.90;;;;;;6134594;23;20257;-82
2023/11/26 00:34:58;;;;;;;3.65;2.67;;;0.40;99.90;;;;;;6133947;23;20194;-88
2023/11/26 00:37:25;;;;;;;1.10;1.10;;;0.30;99.90;;;;;;6156749;23;20201;-84
2023/11/26 00:39:52;;;;;;;0.80;0.80;;;0.30;99.90;;;;;;6134051;23;20179;-89
2023/11/26 00:42:22;;;;;;;0.63;0.63;;;0.30;99.90;;;;;;6155450;23;20186;-83
2023/11/26 00:44:49;;;;;;;1.83;1.73;;;0.30;99.90;;;;;;6132236;23;20178;-83
2023/11/26 00:47:16;;;;;;;1.42;1.42;;;0.30;99.90;;;;;;6155219;23;20265;-81
2023/11/26 00:49:43;;;;;;;1.35;0.77;;;0.30;99.90;;;;;;6132260;23;20192;-83
2023/11/26 00:52:12;;;;;;;1.75;1.65;;;0.30;99.90;;;;;;6136739;23;20222;-83
2023/11/26 00:54:39;;;;;;;1.63;1.52;;;0.30;99.90;;;;;;6135891;23;20250;-83
2023/11/26 00:57:07;;;;;;;1.27;1.13;;;0.30;99.90;;;;;;6136231;23;20190;-84
2023/11/26 00:59:39;;;;;;;0.60;0.60;;;0.30;99.90;;;;;;6158270;23;20197;-83
2023/11/26 01:02:09;;;;;;;1.95;1.55;;;0.30;99.90;;;;;;6142194;23;20179;-82
2023/11/26 01:04:37;;;;;;;1.88;1.77;;;0.30;99.90;;;;;;6148484;23;20158;-85
2023/11/26 01:07:05;;;;;;;1.13;1.13;;;0.30;99.90;;;;;;6147748;23;20179;-83
2023/11/26 01:09:58;;;;;;;0.70;0.70;;;0.20;99.90;;;;;;6120967;23;20199;-82
2023/11/26 01:12:27;;;;;;;1.13;1.13;;;0.30;99.90;;;;;;6113631;23;20222;-83
2023/11/26 01:14:57;;;;;;;3.17;2.42;;;0.30;99.90;;;;;;6108040;23;20183;-84
2023/11/26 01:17:25;;;;;;;1.42;1.42;;;0.30;99.90;;;;;;6108294;23;20190;-86
2023/11/26 01:19:55;;;;;;;3.17;2.97;;;0.30;99.90;;;;;;6106587;23;20171;-82
2023/11/26 01:22:24;;;;;;;2.00;1.90;;;0.30;99.90;;;;;;6106287;23;20226;-86
2023/11/26 01:24:53;;;;;;;1.08;1.08;;;0.30;99.90;;;;;;6110370;23;20175;-86
2023/11/26 01:27:23;;;;;;;0.77;0.77;;;0.30;99.90;;;;;;6110936;23;20169;-84
2023/11/26 01:29:58;;;;;;;2.88;2.72;;;0.20;99.90;;;;;;6108656;23;20222;-83
2023/11/26 01:32:26;;;;;;;1.77;1.75;;;0.20;99.90;;;;;;6104260;23;20432;-81
2023/11/26 01:34:53;;;;;;;3.20;1.42;;;0.10;99.90;;;;;;6102994;23;20183;-80
2023/11/26 01:37:20;;;;;;;2.55;2.45;;;0.20;99.90;;;;;;6102698;23;20206;-83
2023/11/26 01:39:47;;;;;;;1.95;1.85;;;0.10;99.90;;;;;;6103176;23;20190;-84
2023/11/26 01:42:14;;;;;;;1.38;1.38;;;0.10;99.90;;;;;;6102473;23;20211;-82
2023/11/26 01:44:42;;;;;;;3.60;3.35;;;0.10;99.90;;;;;;6104933;23;20183;-85
2023/11/26 01:47:10;;;;;;;0.93;0.93;;;0.10;99.90;;;;;;6104622;23;20211;-84
2023/11/26 01:49:43;;;;;;;1.88;1.88;;;0.00;99.90;;;;;;6105962;23;20491;-89
2023/11/26 01:52:12;;;;;;;1.02;1.02;;;0.20;99.90;;;;;;6105187;23;20262;-83
2023/11/26 01:54:45;;;;;;;0.50;0.50;;;0.00;99.90;;;;;;6106215;23;20175;-82
2023/11/26 01:57:15;;;;;;;0.50;0.50;;;0.00;99.90;;;;;;6105371;23;20202;-83
2023/11/26 01:59:43;;;;;;;2.70;2.60;;;0.00;99.90;;;;;;6107185;23;20206;-80
2023/11/26 02:02:12;;;;;;;0.73;0.73;;;0.00;99.90;;;;;;6105722;23;20224;-83
2023/11/26 02:04:42;;;;;;;1.58;1.30;;;0.00;99.90;;;;;;6104784;23;20187;-87
2023/11/26 02:07:18;;;;;;;2.70;2.50;;;0.00;99.90;;;;;;6107285;23;20213;-83
2023/11/26 02:09:47;;;;;;;0.73;0.73;;;-0.10;99.90;;;;;;6109784;23;20243;-86
2023/11/26 02:12:15;;;;;;;0.55;0.55;;;-0.10;99.90;;;;;;6081986;23;20255;-86
2023/11/26 02:14:48;;;;;;;0.70;0.70;;;-0.10;99.90;;;;;;6105324;23;20412;-86
2023/11/26 02:17:16;;;;;;;1.15;1.05;;;-0.10;99.90;;;;;;6107932;23;20183;-85
2023/11/26 02:19:44;;;;;;;1.00;1.00;;;-0.10;99.90;;;;;;6085566;23;20183;-84
2023/11/26 02:22:13;;;;;;;0.60;0.60;;;-0.10;99.90;;;;;;6056670;23;20179;-85
2023/11/26 02:24:44;;;;;;;1.15;1.15;;;0.00;99.90;;;;;;6085320;23;20202;-87
2023/11/26 02:27:12;;;;;;;2.40;1.80;;;0.00;99.90;;;;;;6109130;23;20163;-84
2023/11/26 02:29:43;;;;;;;0.82;0.82;;;0.00;99.90;;;;;;6082335;23;20705;-87
2023/11/26 02:32:11;;;;;;;0.60;0.60;;;0.00;99.90;;;;;;6108504;23;20258;-85
2023/11/26 02:34:39;;;;;;;5.45;2.47;;;0.00;99.90;;;;;;6109521;23;20203;-88
2023/11/26 02:37:06;;;;;;;0.60;0.60;;;0.00;99.90;;;;;;6122495;23;20171;-83
2023/11/26 02:39:33;;;;;;;0.57;0.57;;;0.00;99.90;;;;;;6122604;23;20186;-85
2023/11/26 02:42:02;;;;;;;1.15;1.15;;;-0.10;99.90;;;;;;6112863;23;20177;-84
2023/11/26 02:44:30;;;;;;;1.27;1.17;;;0.00;99.90;;;;;;6115297;23;20211;-87
2023/11/26 02:46:59;;;;;;;0.75;0.75;;;-0.10;99.90;;;;;;6065693;23;20187;-83
2023/11/26 02:49:27;;;;;;;0.80;0.80;;;-0.10;99.90;;;;;;6111234;23;20179;-83
2023/11/26 02:51:54;;;;;;;0.60;0.60;;;-0.10;99.90;;;;;;6106913;23;20266;-84
2023/11/26 02:54:21;;;;;;;2.70;2.50;;;0.00;99.90;;;;;;6103245;23;20237;-87
2023/11/26 02:56:48;;;;;;;3.10;2.90;;;0.00;99.90;;;;;;6103852;23;20227;-81
2023/11/26 02:59:16;;;;;;;1.17;1.17;;;-0.10;99.90;;;;;;6103070;23;20250;-84
2023/11/26 03:01:47;;;;;;;2.22;1.67;;;0.00;99.90;;;;;;6104268;23;20179;-87
2023/11/26 03:04:21;;;;;;;1.02;1.02;;;-0.10;99.90;;;;;;6106817;23;20168;-85
2023/11/26 03:06:52;;;;;;;0.60;0.60;;;-0.10;99.90;;;;;;6088763;23;20151;-84
2023/11/26 03:12:56;;;;;;;2.67;2.47;;;-0.10;99.90;;;;;;6170639;23;20209;-86
2023/11/26 03:15:16;;;;;;;1.50;1.23;;;0.00;99.90;;;;;;6179724;23;20197;-85
2023/11/26 03:17:44;;;;;;;0.40;0.40;;;0.00;99.90;;;;;;6194367;23;20185;-82
2023/11/26 03:20:19;;;;;;;1.10;1.10;;;0.00;99.90;;;;;;6171687;23;20186;-83
2023/11/26 03:22:46;;;;;;;0.50;0.50;;;-0.10;99.90;;;;;;6176343;23;20206;-85
2023/11/26 03:25:14;;;;;;;0.82;0.82;;;-0.10;99.90;;;;;;6179072;23;20178;-84
2023/11/26 03:27:42;;;;;;;1.05;1.05;;;0.00;99.90;;;;;;6164702;23;20197;-87
2023/11/26 03:30:10;;;;;;;0.95;0.95;;;0.00;99.90;;;;;;6179755;23;20184;-83
2023/11/26 03:32:37;;;;;;;2.25;2.05;;;0.00;99.90;;;;;;6206063;23;20184;-82
2023/11/26 03:35:12;;;;;;;1.15;1.15;;;0.00;99.90;;;;;;6172200;23;20173;-83
2023/11/26 03:37:39;;;;;;;2.05;1.95;;;0.00;99.90;;;;;;6144525;23;20224;-83
2023/11/26 03:40:10;;;;;;;0.75;0.75;;;0.00;99.90;;;;;;6167665;23;20180;-82
2023/11/26 03:42:39;;;;;;;1.40;1.40;;;0.00;99.90;;;;;;6200017;23;20215;-83
2023/11/26 03:45:08;;;;;;;1.30;0.82;;;0.00;99.90;;;;;;6198069;23;20219;-82
2023/11/26 03:47:38;;;;;;;0.88;0.88;;;-0.10;99.90;;;;;;6193134;23;20169;-82
2023/11/26 03:50:10;;;;;;;0.93;0.93;;;0.00;99.90;;;;;;6199745;23;20177;-86
2023/11/26 03:52:38;;;;;;;2.25;2.15;;;0.00;99.90;;;;;;6177147;23;20214;-87
2023/11/26 03:55:07;;;;;;;0.60;0.60;;;-0.10;99.90;;;;;;6201128;23;20169;-85
2023/11/26 03:57:35;;;;;;;0.75;0.75;;;-0.10;99.90;;;;;;6194967;23;20181;-84
2023/11/26 04:00:09;;;;;;;1.98;1.88;;;-0.20;99.90;;;;;;6193927;23;20165;-87
2023/11/26 04:02:38;;;;;;;1.38;1.25;;;-0.20;99.90;;;;;;6168173;23;20568;-84
2023/11/26 04:05:07;;;;;;;2.15;1.75;;;-0.30;99.90;;;;;;6192281;23;20184;-83
2023/11/26 04:07:35;;;;;;;0.63;0.63;;;-0.50;99.90;;;;;;6190338;23;20169;-87
2023/11/26 04:10:04;;;;;;;2.20;2.10;;;-0.50;99.90;;;;;;6167751;23;20215;-86
2023/11/26 04:12:31;;;;;;;0.88;0.60;;;-0.60;99.90;;;;;;6192176;23;20196;-86
2023/11/26 04:15:02;;;;;;;1.02;1.02;;;-0.70;99.90;;;;;;6193909;23;20181;-87
2023/11/26 04:17:32;;;;;;;1.02;0.95;;;-0.70;99.90;;;;;;6169867;23;20462;-83
2023/11/26 04:20:01;;;;;;;0.98;0.98;;;-0.70;99.90;;;;;;6195202;23;20216;-84
2023/11/26 04:22:28;;;;;;;0.60;0.60;;;-0.70;99.90;;;;;;6196819;23;20195;-88
2023/11/26 04:24:55;;;;;;;1.63;1.52;;;-0.60;99.90;;;;;;6198763;23;20177;-85
2023/11/26 04:27:26;;;;;;;0.93;0.93;;;-0.60;99.90;;;;;;6206338;23;20191;-87
2023/11/26 04:29:54;;;;;;;0.60;0.60;;;-0.60;99.90;;;;;;6200318;23;20256;-83
2023/11/26 04:32:21;;;;;;;0.88;0.88;;;-0.60;99.90;;;;;;6201856;23;20299;-86
2023/11/26 04:34:49;;;;;;;0.77;0.77;;;-0.60;99.90;;;;;;6195246;23;20203;-84
2023/11/26 04:37:17;;;;;;;2.05;1.52;;;-0.60;99.90;;;;;;6191081;23;20181;-84
2023/11/26 04:39:45;;;;;;;0.50;0.50;;;-0.70;99.90;;;;;;6190474;23;20181;-83
2023/11/26 04:42:16;;;;;;;0.50;0.50;;;-0.80;99.90;;;;;;6193019;23;20187;-84
2023/11/26 04:44:48;;;;;;;3.05;1.35;;;-0.90;99.90;;;;;;6192351;23;20175;-88
2023/11/26 04:47:15;;;;;;;0.40;0.40;;;-0.80;99.90;;;;;;6191451;23;20793;-85
2023/11/26 04:49:43;;;;;;;0.50;0.45;;;-0.80;99.90;;;;;;6165108;23;20177;-87
2023/11/26 04:52:11;;;;;;;0.60;0.60;;;-0.80;99.90;;;;;;6166477;23;20181;-86
2023/11/26 04:54:39;;;;;;;0.70;0.60;;;-0.80;99.90;;;;;;6191940;23;20181;-85
2023/11/26 04:57:06;;;;;;;1.85;0.70;;;-0.80;99.90;;;;;;6190880;23;20211;-86
2023/11/26 04:59:41;;;;;;;0.70;0.70;;;-0.70;99.90;;;;;;6190756;23;20391;-83
2023/11/26 05:02:10;;;;;;;0.93;0.70;;;-0.70;99.90;;;;;;6171631;23;20188;-83
2023/11/26 05:04:39;;;;;;;0.40;0.40;;;-0.60;99.90;;;;;;6178784;23;20184;-82
2023/11/26 05:07:06;;;;;;;0.82;0.82;;;-0.60;99.90;;;;;;6199451;23;20172;-86
2023/11/26 05:09:34;;;;;;;0.60;0.60;;;-0.70;99.90;;;;;;6195414;23;20481;-87
2023/11/26 05:12:02;;;;;;;1.77;1.30;;;-0.80;99.90;;;;;;6197880;23;20174;-87
2023/11/26 05:14:30;;;;;;;0.88;0.88;;;-1.00;99.90;;;;;;6196644;23;20193;-83
2023/11/26 05:16:58;;;;;;;0.60;0.60;;;-1.10;99.90;;;;;;6196490;23;20181;-83
2023/11/26 05:19:35;;;;;;;0.50;0.50;;;-1.10;99.90;;;;;;6177948;23;20204;-87
2023/11/26 05:22:03;;;;;;;0.57;0.57;;;-1.10;99.90;;;;;;6200931;23;20197;-89
2023/11/26 05:24:32;;;;;;;4.43;1.67;;;-1.20;99.90;;;;;;6200105;23;20200;-85
2023/11/26 05:27:00;;;;;;;0.40;0.40;;;-1.20;99.90;;;;;;6201210;23;20177;-86
2023/11/26 05:29:31;;;;;;;0.40;0.40;;;-1.30;99.90;;;;;;6198908;23;20200;-83
2023/11/26 05:31:59;;;;;;;1.38;0.98;;;-1.30;99.90;;;;;;6204869;23;20173;-85
2023/11/26 05:34:26;;;;;;;0.40;0.40;;;-1.30;99.90;;;;;;6176083;23;20189;-85
2023/11/26 05:36:54;;;;;;;0.40;0.40;;;-1.20;99.90;;;;;;6202540;23;20173;-85
2023/11/26 05:39:25;;;;;;;0.40;0.40;;;-1.30;99.90;;;;;;6152086;23;20161;-83
2023/11/26 05:41:54;;;;;;;0.45;0.45;;;-1.20;99.90;;;;;;6206197;23;20175;-85
2023/11/26 05:44:23;;;;;;;0.73;0.73;;;-1.20;99.90;;;;;;6181063;23;20180;-87
2023/11/26 05:46:51;;;;;;;0.38;0.38;;;-1.20;99.90;;;;;;6199536;23;20177;-86
2023/11/26 05:49:26;;;;;;;1.45;0.82;;;-1.20;99.90;;;;;;6201556;23;20399;-85
2023/11/26 05:51:57;;;;;;;1.98;1.85;;;-1.20;99.90;;;;;;6204794;23;20399;-87
2023/11/26 05:54:26;;;;;;;0.73;0.70;;;-1.30;99.90;;;;;;6174828;23;20208;-86
2023/11/26 05:56:56;;;;;;;2.00;1.17;;;-1.30;99.90;;;;;;6197503;23;20169;-86
2023/11/26 05:59:24;;;;;;;0.30;0.30;;;-1.40;99.90;;;;;;6196722;23;20189;-85
2023/11/26 06:01:51;;;;;;;0.50;0.50;;;-1.30;99.90;;;;;;6196946;23;20386;-82
2023/11/26 06:04:18;;;;;;;0.93;0.93;;;-1.30;99.90;;;;;;6192366;23;20640;-84
2023/11/26 06:06:46;;;;;;;0.45;0.45;;;-1.40;99.90;;;;;;6193497;23;20177;-83
2023/11/26 06:09:16;;;;;;;0.82;0.82;;;-1.30;99.90;;;;;;6170984;23;20192;-88
2023/11/26 06:11:46;;;;;;;0.40;0.40;;;-1.30;99.90;;;;;;6197523;23;20180;-86
2023/11/26 06:14:17;;;;;;;1.23;1.08;;;-1.40;99.90;;;;;;6193850;23;20189;-87
2023/11/26 06:16:45;;;;;;;0.60;0.60;;;-1.30;99.90;;;;;;6168998;23;20188;-84
2023/11/26 06:19:13;;;;;;;0.50;0.50;;;-1.30;99.90;;;;;;6168909;23;20181;-86
2023/11/26 06:21:41;;;;;;;0.88;0.88;;;-1.30;99.90;;;;;;6168707;23;20205;-85
2023/11/26 06:24:09;;;;;;;1.58;1.48;;;-1.20;99.90;;;;;;6192950;23;20177;-87
2023/11/26 06:26:52;;;;;;;0.88;0.88;;;-1.10;99.90;;;;;;6171254;23;20184;-85
2023/11/26 06:29:19;;;;;;;0.70;0.70;;;-1.20;99.90;;;;;;6199500;23;20221;-82
2023/11/26 06:31:46;;;;;;;0.40;0.40;;;-1.20;99.90;;;;;;6195996;23;20188;-88
2023/11/26 06:34:13;;;;;;;0.43;0.43;;;-1.10;99.90;;;;;;6196608;23;20767;-84
2023/11/26 06:36:41;;;;;;;0.40;0.40;;;-1.10;99.90;;;;;;6180991;23;20226;-82
2023/11/26 06:39:09;;;;;;;0.75;0.63;;;-1.20;99.90;;;;;;6205929;23;20196;-84
2023/11/26 06:41:41;;;;;;;0.98;0.98;;;-1.20;99.90;;;;;;6202146;23;20457;-82
2023/11/26 06:44:08;;;;;;;0.40;0.40;;;-1.10;99.90;;;;;;6203965;23;20628;-82
2023/11/26 06:46:36;;;;;;;1.95;1.83;;;-1.20;99.90;;;;;;6201632;23;20192;-84
2023/11/26 06:49:04;;;;;;;0.40;0.40;;;-1.10;99.90;;;;;;6175961;23;20169;-86
2023/11/26 06:51:32;;;;;;;1.85;1.75;;;-1.00;99.90;;;;;;6198819;23;20232;-80
2023/11/26 06:54:00;;;;;;;1.08;1.08;;;-1.00;99.90;;;;;;6193110;23;20224;-86
2023/11/26 06:56:29;;;;;;;1.27;1.23;;;-1.00;99.90;;;;;;6193712;23;20177;-84
2023/11/26 06:58:56;;;;;;;0.98;0.98;;;-0.90;99.90;;;;;;6193141;23;20184;-86
2023/11/26 07:01:24;;;;;;;0.50;0.50;;;-0.90;99.90;;;;;;6195041;23;20196;-89
2023/11/26 07:03:51;;;;;;;1.50;1.40;;;-0.90;99.90;;;;;;6197069;23;20185;-85
2023/11/26 07:06:19;;;;;;;1.00;1.00;;;-0.80;99.90;;;;;;6194289;23;20173;-89
2023/11/26 07:08:47;;;;;;;1.00;1.00;;;-0.80;99.90;;;;;;6198048;23;20181;-85
2023/11/26 07:11:24;;;;;;;0.75;0.75;;;-0.80;99.90;;;;;;6179344;23;20176;-81
2023/11/26 07:13:54;;;;;;;0.50;0.50;;;-0.80;99.90;;;;;;6184239;23;20200;-84
2023/11/26 07:16:26;;;;;;;0.82;0.82;;;-0.90;99.90;;;;;;6187484;23;20224;-83
2023/11/26 07:18:53;;;;;;;0.50;0.50;;;-0.90;99.90;;;;;;6180442;23;20182;-84
2023/11/26 07:21:21;;;;;;;1.02;1.02;;;-0.70;99.90;;;;;;6173736;23;20209;-83
2023/11/26 07:23:51;;;;;;;1.00;0.98;;;-0.90;99.90;;;;;;6176873;23;20157;-86
2023/11/26 07:26:22;;;;;;;0.40;0.40;;;-0.90;99.90;;;;;;6171596;23;20181;-87
2023/11/26 07:28:51;;;;;;;1.85;1.75;;;-0.90;99.90;;;;;;6178333;23;20169;-81
2023/11/26 07:31:26;;;;;;;0.70;0.70;;;-0.90;99.90;;;;;;6177382;23;20178;-81
2023/11/26 07:33:53;;;;;;;0.50;0.50;;;-0.90;99.90;;;;;;6166409;23;20238;-85
2023/11/26 07:36:26;;;;;;;3.60;2.35;;;-0.80;99.90;;;;;;6163375;23;20180;-87
2023/11/26 07:38:58;;;;;;;0.60;0.60;;;-0.80;99.90;;;;;;6164440;23;20166;-81
2023/11/26 07:41:26;;;;;;;1.50;1.40;;;-0.80;99.90;;;;;;6166468;23;20173;-81
2023/11/26 07:43:55;;;;;;;0.90;0.90;;;-0.80;99.90;;;;;;6182360;23;20185;-85
2023/11/26 07:46:23;;;;;;;0.60;0.60;;;-0.80;99.90;;;;;;6182448;23;20189;-84
2023/11/26 07:48:50;;;;;;;0.73;0.70;;;-0.80;99.90;;;;;;6180703;23;20217;-82
2023/11/26 07:51:18;;;;;;;1.15;1.05;;;-0.80;99.90;;;;;;6175312;23;20241;-85
2023/11/26 07:53:45;;;;;;;0.82;0.82;;;-0.80;99.90;;;;;;6164347;23;20194;-85
2023/11/26 07:56:12;;;;;;;1.13;1.02;;;-0.70;99.90;;;;;;6166140;23;20237;-88
2023/11/26 07:58:39;;;;;;;0.40;0.40;;;-0.70;99.90;;;;;;6167285;23;20181;-87
2023/11/26 08:01:07;;;;;;;1.20;1.20;;;-0.70;99.90;;;;;;6168300;23;20362;-85
2023/11/26 08:03:36;;;;;;;1.73;1.63;;;-0.70;99.90;;;;;;6166969;23;20188;-85
2023/11/26 08:06:11;;;;;;;0.85;0.85;;;-0.70;99.90;;;;;;6168921;23;20214;-90
2023/11/26 08:08:47;;;;;;;0.95;0.95;;;-0.70;99.90;;;;;;6191949;23;20177;-86
2023/11/26 08:11:16;;;;;;;0.73;0.73;;;-0.60;99.90;;;;;;6197403;23;20170;-86
2023/11/26 08:13:44;;;;;;;0.75;0.75;;;-0.50;99.90;;;;;;6171636;23;20273;-86
2023/11/26 08:16:13;;;;;;;0.60;0.60;;;-0.40;99.90;;;;;;6173861;23;20189;-84
2023/11/26 08:18:41;;;;;;;1.20;1.20;;;-0.50;99.90;;;;;;6169268;23;20475;-88
2023/11/26 08:21:08;;;;;;;0.60;0.60;;;-0.30;99.90;;;;;;6225924;22;20207;-88
2023/11/26 08:23:50;;;;;;;0.77;0.77;;;-0.50;99.90;;;;;;6234727;23;20176;-86
2023/11/26 08:26:22;;;;;;;0.40;0.40;;;-0.40;99.90;;;;;;6260891;23;20183;-87
2023/11/26 08:28:50;;;;;;;2.95;2.75;;;-0.40;99.90;;;;;;6234829;23;20188;-87
2023/11/26 08:31:23;;;;;;;1.48;1.48;;;-0.50;99.90;;;;;;6236353;23;20197;-85
2023/11/26 08:33:53;;;;;;;0.82;0.82;;;-0.50;99.90;;;;;;6241260;23;20199;-88
2023/11/26 08:36:20;;;;;;;0.60;0.60;;;-0.40;99.90;;;;;;6265515;23;20179;-86
2023/11/26 08:38:51;;;;;;;0.63;0.63;;;-0.30;99.90;;;;;;6233869;23;20783;-89
2023/11/26 08:41:20;;;;;;;1.88;1.77;;;-0.30;99.90;;;;;;6260062;23;20230;-85
2023/11/26 08:43:54;;;;;;;0.50;0.50;;;-0.40;99.90;;;;;;6261099;23;20171;-85
2023/11/26 08:46:22;;;;;;;0.50;0.50;;;-0.30;99.90;;;;;;6240110;23;20214;-87
2023/11/26 08:48:52;;;;;;;0.50;0.50;;;-0.30;99.90;;;;;;6234714;23;20232;-89
2023/11/26 08:51:20;;;;;;;0.65;0.65;;;-0.10;99.90;;;;;;6260736;23;20168;-86
2023/11/26 08:53:47;;;;;;;0.80;0.80;;;-0.20;99.90;;;;;;6218213;22;20585;-85
2023/11/26 08:56:18;;;;;;;0.80;0.80;;;0.00;99.90;;;;;;6197157;23;20376;-88
2023/11/26 08:58:45;;;;;;;2.83;2.55;;;0.00;99.90;;;;;;6173412;23;20235;-88
2023/11/26 09:01:17;;;;;;;0.68;0.68;;;0.60;99.90;;;;;;6199994;23;20176;-86
2023/11/26 09:03:46;;;;;;;1.00;1.00;;;-0.20;99.90;;;;;;6175655;23;20180;-87
2023/11/26 09:06:17;;;;;;;0.77;0.77;;;-0.50;99.90;;;;;;6152326;23;20185;-84
2023/11/26 09:08:49;;;;;;;1.13;0.90;;;-0.60;99.90;;;;;;6152992;23;20176;-87
2023/11/26 09:11:18;;;;;;;0.70;0.70;;;-0.40;99.90;;;;;;6176430;23;20162;-88
2023/11/26 09:13:46;;;;;;;0.68;0.68;;;-0.50;99.90;;;;;;6174134;23;20193;-87
2023/11/26 09:16:36;;;;;;;0.70;0.70;;;-0.50;99.90;;;;;;6200033;23;20508;-89
2023/11/26 09:19:06;;;;;;;0.40;0.40;;;-0.40;99.90;;;;;;6174899;23;20244;-88
2023/11/26 09:21:37;;;;;;;0.50;0.50;;;-0.40;99.90;;;;;;6179870;23;20165;-87
2023/11/26 09:24:07;;;;;;;1.10;1.10;;;-0.40;99.90;;;;;;6180791;23;20177;-86
2023/11/26 09:26:34;;;;;;;1.23;1.17;;;-0.10;99.90;;;;;;6185649;23;20168;-88
2023/11/26 09:29:12;;;;;;;0.50;0.50;;;-0.40;99.90;;;;;;6209113;23;20161;-86
2023/11/26 09:31:49;;;;;;;1.55;1.45;;;-0.30;99.90;;;;;;6204034;23;20263;-86
2023/11/26 09:34:16;;;;;;;0.50;0.50;;;-0.20;99.90;;;;;;6199997;23;20185;-84
2023/11/26 09:36:45;;;;;;;0.90;0.90;;;-0.30;99.90;;;;;;6172958;23;20236;-85
2023/11/26 09:39:13;;;;;;;0.50;0.50;;;-0.40;99.90;;;;;;6198706;23;20168;-86
2023/11/26 09:41:40;;;;;;;1.02;1.02;;;-0.20;99.90;;;;;;6200163;23;20181;-84
2023/11/26 09:44:11;;;;;;;0.50;0.50;;;0.10;99.90;;;;;;6175691;23;20185;-86
2023/11/26 09:46:45;;;;;;;0.70;0.70;;;0.00;99.90;;;;;;6172168;23;20398;-88
2023/11/26 09:49:13;;;;;;;1.30;1.25;;;-0.10;99.90;;;;;;6200514;23;20173;-86
2023/11/26 09:51:43;;;;;;;0.75;0.75;;;0.00;99.90;;;;;;6202076;23;20177;-86
2023/11/26 09:54:16;;;;;;;0.55;0.55;;;0.00;99.90;;;;;;6175182;23;20425;-86
2023/11/26 09:56:46;;;;;;;0.73;0.73;;;0.00;99.90;;;;;;6178534;23;20169;-85
2023/11/26 09:59:29;;;;;;;0.68;0.68;;;0.10;99.90;;;;;;6183086;23;20217;-88
2023/11/26 10:02:02;;;;;;;0.77;0.77;;;0.00;99.90;;;;;;6178090;23;20221;-89
2023/11/26 10:04:55;;;;;;;0.80;0.77;;;0.00;99.90;;;;;;6179281;23;20176;-88
2023/11/26 10:07:38;;;;;;;1.05;0.82;;;-0.20;99.90;;;;;;6201802;23;20498;-87
2023/11/26 10:10:12;;;;;;;1.52;1.30;;;-0.20;99.90;;;;;;6175827;23;20181;-85
2023/11/26 10:12:54;;;;;;;0.40;0.40;;;-0.20;99.90;;;;;;6179062;23;20161;-86
2023/11/26 10:15:25;;;;;;;1.50;1.42;;;0.00;99.90;;;;;;6200938;23;20209;-91
2023/11/26 10:20:53;;;;;;;0.52;0.52;;;0.30;99.90;;;;;;6116151;23;20175;-87
2023/11/26 10:23:35;;;;;;;0.50;0.50;;;0.20;99.90;;;;;;6113872;23;20166;-87
2023/11/26 10:26:29;;;;;;;1.13;1.13;;;0.30;99.90;;;;;;6109775;23;20163;-88
2023/11/26 10:29:08;;;;;;;0.47;0.47;;;0.40;99.90;;;;;;6111666;23;20198;-85
2023/11/26 10:31:36;;;;;;;0.50;0.50;;;0.50;99.90;;;;;;6109915;23;20175;-83
2023/11/26 10:34:14;;;;;;;1.27;0.77;;;0.30;99.90;;;;;;6109437;23;20206;-86
2023/11/26 10:36:42;;;;;;;0.60;0.60;;;0.20;99.90;;;;;;6115940;23;20167;-86
2023/11/26 10:39:20;;;;;;;1.92;1.80;;;0.10;99.90;;;;;;6139425;22;20197;-83
2023/11/26 10:41:51;;;;;;;0.95;0.80;;;0.10;99.90;;;;;;6273823;22;20178;-87
2023/11/26 10:44:22;;;;;;;0.40;0.40;;;0.00;99.90;;;;;;6295971;22;20190;-89
2023/11/26 10:49:42;;;;;;;0.50;0.50;;;0.30;99.90;;;;;;6205896;22;20196;-82
2023/11/26 10:52:19;;;;;;;0.45;0.45;;;0.30;99.90;;;;;;6188956;23;20228;-88
2023/11/26 10:55:13;;;;;;;0.50;0.50;;;0.40;99.90;;;;;;6211994;23;20196;-82
2023/11/26 10:57:40;;;;;;;0.65;0.65;;;0.40;99.90;;;;;;6185545;23;20189;-86
2023/11/26 11:00:21;;;;;;;0.50;0.50;;;0.50;99.90;;;;;;6209707;23;20261;-84
2023/11/26 11:02:49;;;;;;;0.40;0.40;;;0.60;99.90;;;;;;6208547;23;20168;-89
2023/11/26 11:05:22;;;;;;;0.60;0.60;;;0.60;99.90;;;;;;6200839;23;20168;-87
2023/11/26 11:07:51;;;;;;;0.50;0.50;;;0.70;99.90;;;;;;6173339;23;20233;-90
2023/11/26 11:10:37;;;;;;;0.80;0.80;;;0.70;99.90;;;;;;6174608;23;20181;-84
2023/11/26 11:13:24;;;;;;;0.40;0.40;;;0.40;99.90;;;;;;6169300;23;20241;-89
2023/11/26 11:15:54;;;;;;;0.82;0.82;;;0.30;99.90;;;;;;6148887;23;20241;-87
2023/11/26 11:21:16;;;;;;;0.70;0.70;;;0.60;99.90;;;;;;6186969;23;20196;-84
2023/11/26 11:23:52;;;;;;;0.60;0.60;;;0.80;99.90;;;;;;6129601;23;20228;-89
2023/11/26 11:26:22;;;;;;;0.60;0.60;;;1.10;99.90;;;;;;6207196;23;20160;-88
2023/11/26 11:29:00;;;;;;;1.08;1.08;;;1.30;99.90;;;;;;6206966;23;20172;-87
2023/11/26 11:31:48;;;;;;;1.98;1.88;;;1.30;99.90;;;;;;6187559;23;20207;-86
2023/11/26 11:34:21;;;;;;;1.58;1.40;;;1.10;99.90;;;;;;6210320;23;20207;-88
2023/11/26 11:36:50;;;;;;;2.25;2.15;;;1.00;99.90;;;;;;6155600;23;20181;-85
2023/11/26 11:39:21;;;;;;;0.98;0.98;;;1.10;99.90;;;;;;6162806;23;20217;-85
2023/11/26 11:42:00;;;;;;;0.50;0.50;;;1.00;99.90;;;;;;6148985;23;20179;-87
2023/11/26 11:44:29;;;;;;;0.90;0.90;;;1.00;99.90;;;;;;6148117;23;1168829;-86
2023/11/26 11:46:58;;;;;;;2.25;1.77;;;0.90;99.90;;;;;;6150138;23;20400;-87
2023/11/26 11:52:14;;;;;;;0.60;0.60;;;0.70;99.90;;;;;;6138022;22;20330;-86
2023/11/26 11:54:57;;;;;;;1.67;1.17;;;0.70;99.90;;;;;;6175248;23;20241;-85
2023/11/26 11:57:27;;;;;;;14.63;1.65;;;0.70;99.90;;;;;;6170621;23;20211;-88
2023/11/26 11:59:55;;;;;;;0.90;0.90;;;0.70;99.90;;;;;;6176125;23;20173;-86
2023/11/26 12:02:24;;;;;;;0.63;0.63;;;0.80;99.90;;;;;;6200690;23;20181;-88
2023/11/26 12:07:32;;;;;;;2.25;1.70;;;0.80;99.90;;;;;;6192575;23;20187;-89
2023/11/26 12:10:01;;;;;;;0.45;0.45;;;0.90;99.90;;;;;;6176284;23;20173;-86
2023/11/26 12:12:30;;;;;;;1.75;1.65;;;0.80;99.90;;;;;;6154622;23;20211;-89
2023/11/26 12:15:10;;;;;;;0.90;0.90;;;0.80;99.90;;;;;;6204293;23;20208;-89
2023/11/26 12:17:40;;;;;;;0.80;0.80;;;0.70;99.90;;;;;;6122602;23;20220;-88
2023/11/26 12:22:48;;;;;;;0.80;0.80;;;0.60;99.90;;;;;;6105918;23;20196;-86
2023/11/26 12:25:27;;;;;;;0.60;0.60;;;0.60;99.90;;;;;;6182078;23;20192;-90
2023/11/26 12:28:08;;;;;;;1.40;1.40;;;0.60;99.90;;;;;;6178440;23;20173;-88
2023/11/26 12:33:20;;;;;;;0.40;0.40;;;0.50;99.90;;;;;;6201973;23;20204;-88
2023/11/26 12:35:49;;;;;;;1.70;1.60;;;0.40;99.90;;;;;;6203168;23;20187;-89
2023/11/26 12:38:25;;;;;;;0.90;0.90;;;0.40;99.90;;;;;;6139057;23;20232;-91
2023/11/26 12:41:08;;;;;;;0.90;0.90;;;0.40;99.90;;;;;;6104382;23;20377;-90
2023/11/26 12:43:44;;;;;;;1.48;1.48;;;0.70;99.90;;;;;;6178897;23;20220;-87
2023/11/26 12:46:16;;;;;;;0.65;0.65;;;0.90;99.90;;;;;;6202738;23;20192;-88
2023/11/26 12:51:33;;;;;;;0.95;0.95;;;1.00;99.90;;;;;;6158030;23;20262;-88
2023/11/26 12:54:04;;;;;;;0.50;0.50;;;0.80;99.90;;;;;;6180186;23;20177;-89
2023/11/26 12:59:29;;;;;;;0.40;0.40;;;0.50;99.90;;;;;;6145286;23;20212;-86
2023/11/26 13:04:45;;;;;;;1.08;1.05;;;0.20;99.90;;;;;;6170234;23;20438;-87
2023/11/26 13:07:12;;;;;;;0.40;0.40;;;0.20;99.90;;;;;;6176515;23;20165;-84
2023/11/26 13:09:51;;;;;;;0.70;0.70;;;0.20;99.90;;;;;;6131863;23;20194;-89
2023/11/26 14:41:56;;;;;;;0.50;0.50;;;-0.20;99.90;;;;;;6257788;23;20186;-83
2023/11/26 14:44:33;;;;;;;0.40;0.40;;;-0.30;99.90;;;;;;6213679;23;20191;-85
2023/11/26 14:47:12;;;;;;;0.40;0.40;;;-0.40;99.90;;;;;;6176130;23;20219;-84
2023/11/26 14:49:42;;;;;;;2.35;1.67;;;-0.50;99.90;;;;;;6176311;23;20192;-86
2023/11/26 14:52:15;;;;;;;0.50;0.50;;;-0.60;99.90;;;;;;6151643;23;20172;-91
2023/11/26 14:54:51;;;;;;;0.70;0.70;;;-0.60;99.90;;;;;;6200701;23;20192;-85
2023/11/26 14:57:32;;;;;;;0.93;0.93;;;-0.70;99.90;;;;;;6201309;23;20172;-88
2023/11/26 15:03:01;;;;;;;0.85;0.85;;;-0.90;99.90;;;;;;6197069;23;20311;-89
2023/11/26 15:08:05;;;;;;;1.63;1.52;;;-0.90;99.90;;;;;;6177521;23;20215;-85
2023/11/26 15:10:46;;;;;;;2.15;0.85;;;-1.00;99.90;;;;;;6165083;23;20209;-88
2023/11/26 15:13:15;;;;;;;0.60;0.60;;;-1.00;99.90;;;;;;6201507;23;20215;-87